createdAt,value
2019-01-28T00:00:20.287Z,18.07
2019-01-28T00:01:20.847Z,18.07
2019-01-28T00:02:21.100Z,18.06
2019-01-28T00:03:20.175Z,18.06
2019-01-28T00:04:20.875Z,18.05
2019-01-28T00:05:20.054Z,18.03
2019-01-28T00:06:20.047Z,18.04
2019-01-28T00:07:20.221Z,18.03
2019-01-28T00:08:20.395Z,18.03
2019-01-28T00:09:20.384Z,18.02
2019-01-28T00:10:20.154Z,18
2019-01-28T00:11:20.508Z,18
2019-01-28T00:12:20.145Z,18
2019-01-28T00:13:20.172Z,17.99
2019-01-28T00:14:20.297Z,18
2019-01-28T00:15:20.339Z,17.99
2019-01-28T00:16:20.140Z,17.98
2019-01-28T00:17:20.285Z,17.98
2019-01-28T00:18:21.107Z,17.99
2019-01-28T00:19:20.242Z,17.98
2019-01-28T00:20:20.651Z,17.97
2019-01-28T00:21:20.378Z,17.96
2019-01-28T00:22:20.293Z,17.96
2019-01-28T00:23:20.250Z,17.96
2019-01-28T00:24:20.381Z,17.96
2019-01-28T00:25:20.248Z,17.94
2019-01-28T00:26:21.029Z,17.95
2019-01-28T00:27:20.136Z,17.93
2019-01-28T00:28:21.996Z,17.94
2019-01-28T00:29:20.374Z,17.94
2019-01-28T00:30:20.615Z,17.94
2019-01-28T00:31:20.175Z,17.92
2019-01-28T00:32:19.947Z,17.91
2019-01-28T00:33:20.210Z,17.91
2019-01-28T00:34:19.965Z,17.9
2019-01-28T00:35:20.503Z,17.9
2019-01-28T00:36:20.191Z,17.91
2019-01-28T00:37:23.186Z,17.9
2019-01-28T00:38:20.022Z,17.89
2019-01-28T00:39:20.453Z,17.88
2019-01-28T00:40:20.407Z,17.88
2019-01-28T00:41:20.061Z,17.87
2019-01-28T00:42:20.177Z,17.88
2019-01-28T00:43:20.222Z,17.88
2019-01-28T00:44:20.057Z,17.85
2019-01-28T00:45:20.135Z,17.87
2019-01-28T00:46:20.144Z,17.85
2019-01-28T00:47:20.152Z,17.85
2019-01-28T00:48:20.147Z,17.84
2019-01-28T00:49:20.891Z,17.85
2019-01-28T00:50:20.302Z,17.85
2019-01-28T00:51:20.411Z,17.85
2019-01-28T00:52:20.150Z,17.84
2019-01-28T00:53:20.497Z,17.81
2019-01-28T00:54:20.003Z,17.83
2019-01-28T00:55:20.253Z,17.83
2019-01-28T00:56:20.602Z,17.83
2019-01-28T00:57:20.102Z,17.81
2019-01-28T00:58:20.642Z,17.8
2019-01-28T00:59:20.160Z,17.8
2019-01-28T01:00:20.370Z,17.79
2019-01-28T01:01:21.129Z,17.78
2019-01-28T01:02:20.463Z,17.79
2019-01-28T01:03:20.266Z,17.78
2019-01-28T01:04:19.955Z,17.79
2019-01-28T01:05:20.268Z,17.78
2019-01-28T01:06:20.068Z,17.78
2019-01-28T01:07:20.300Z,17.78
2019-01-28T01:08:20.241Z,17.77
2019-01-28T01:09:19.954Z,17.76
2019-01-28T01:10:20.228Z,17.75
2019-01-28T01:11:20.641Z,17.76
2019-01-28T01:12:20.276Z,17.75
2019-01-28T01:13:20.145Z,17.74
2019-01-28T01:14:20.115Z,17.73
2019-01-28T01:15:20.083Z,17.73
2019-01-28T01:16:20.046Z,17.73
2019-01-28T01:17:20.150Z,17.72
2019-01-28T01:18:23.663Z,17.72
2019-01-28T01:19:20.152Z,17.71
2019-01-28T01:20:20.278Z,17.71
2019-01-28T01:21:20.099Z,17.71
2019-01-28T01:22:20.169Z,17.72
2019-01-28T01:23:20.923Z,17.69
2019-01-28T01:24:20.423Z,17.69
2019-01-28T01:25:20.331Z,17.69
2019-01-28T01:26:20.228Z,17.69
2019-01-28T01:27:20.263Z,17.7
2019-01-28T01:28:20.359Z,17.7
2019-01-28T01:29:21.086Z,17.68
2019-01-28T01:30:20.334Z,17.68
2019-01-28T01:31:20.128Z,17.67
2019-01-28T01:32:20.561Z,17.67
2019-01-28T01:33:20.145Z,17.68
2019-01-28T01:34:20.400Z,17.67
2019-01-28T01:35:20.095Z,17.66
2019-01-28T01:36:20.055Z,17.66
2019-01-28T01:37:20.019Z,17.66
2019-01-28T01:38:20.047Z,17.65
2019-01-28T01:39:20.032Z,17.64
2019-01-28T01:40:21.719Z,17.65
2019-01-28T01:41:20.352Z,17.64
2019-01-28T01:42:20.885Z,17.64
2019-01-28T01:43:20.471Z,17.62
2019-01-28T01:44:20.088Z,17.63
2019-01-28T01:45:20.378Z,17.64
2019-01-28T01:46:20.488Z,17.63
2019-01-28T01:47:20.298Z,17.63
2019-01-28T01:48:20.195Z,17.63
2019-01-28T01:49:20.753Z,17.63
2019-01-28T01:50:20.289Z,17.61
2019-01-28T01:51:20.239Z,17.61
2019-01-28T01:52:20.093Z,17.61
2019-01-28T01:53:20.669Z,17.59
2019-01-28T01:54:20.120Z,17.6
2019-01-28T01:55:20.435Z,17.6
2019-01-28T01:56:20.591Z,17.59
2019-01-28T01:57:20.099Z,17.59
2019-01-28T01:58:20.186Z,17.58
2019-01-28T01:59:21.181Z,17.58
2019-01-28T02:00:21.256Z,17.58
2019-01-28T02:01:20.339Z,17.56
2019-01-28T02:02:20.375Z,17.55
2019-01-28T02:03:20.350Z,17.57
2019-01-28T02:04:20.170Z,17.58
2019-01-28T02:05:20.399Z,17.56
2019-01-28T02:06:19.954Z,17.56
2019-01-28T02:07:20.282Z,17.55
2019-01-28T02:08:20.210Z,17.55
2019-01-28T02:09:19.929Z,17.54
2019-01-28T02:10:20.089Z,17.55
2019-01-28T02:11:20.339Z,17.53
2019-01-28T02:12:20.266Z,17.53
2019-01-28T02:13:20.085Z,17.53
2019-01-28T02:14:20.055Z,17.53
2019-01-28T02:15:19.966Z,17.53
2019-01-28T02:16:20.070Z,17.53
2019-01-28T02:17:20.135Z,17.54
2019-01-28T02:18:20.392Z,17.53
2019-01-28T02:19:20.334Z,17.51
2019-01-28T02:20:20.328Z,17.52
2019-01-28T02:21:20.137Z,17.52
2019-01-28T02:22:20.017Z,17.52
2019-01-28T02:23:20.104Z,17.5
2019-01-28T02:24:20.463Z,17.51
2019-01-28T02:25:20.154Z,17.48
2019-01-28T02:26:19.967Z,17.5
2019-01-28T02:27:20.511Z,17.49
2019-01-28T02:28:20.129Z,17.5
2019-01-28T20:19:46.570Z,19.7
2019-01-28T20:20:46.564Z,19.66
2019-01-28T20:21:46.681Z,19.65
2019-01-28T20:22:46.584Z,19.63
2019-01-28T20:23:46.700Z,19.63
2019-01-28T20:24:46.451Z,19.61
2019-01-28T20:25:46.645Z,19.6
2019-01-28T20:26:47.384Z,19.59
2019-01-28T20:27:46.793Z,19.59
2019-01-28T20:28:47.129Z,19.57
2019-01-28T20:29:46.570Z,19.56
2019-01-28T20:30:46.846Z,19.56
2019-01-28T20:31:46.308Z,19.56
2019-01-28T20:32:46.271Z,19.54
2019-01-28T20:33:46.483Z,19.54
2019-01-28T20:34:46.488Z,19.53
2019-01-28T20:35:46.659Z,19.53
2019-01-28T20:36:46.556Z,19.51
2019-01-28T20:37:46.691Z,19.51
2019-01-28T20:38:46.587Z,19.52
2019-01-28T20:39:46.601Z,19.51
2019-01-28T20:40:46.322Z,19.5
2019-01-28T20:41:46.508Z,19.49
2019-01-28T20:42:46.680Z,19.5
2019-01-28T20:43:46.317Z,19.47
2019-01-28T20:44:46.309Z,19.48
2019-01-28T20:45:46.331Z,19.47
2019-01-28T20:46:48.401Z,19.45
2019-01-28T20:47:46.496Z,19.46
2019-01-28T20:48:46.672Z,19.45
2019-01-28T20:49:46.463Z,19.44
2019-01-28T20:50:46.354Z,19.43
2019-01-28T20:51:46.502Z,19.43
2019-01-28T20:52:46.664Z,19.42
2019-01-28T20:53:48.033Z,19.41
2019-01-28T20:54:46.639Z,19.4
2019-01-28T20:55:46.372Z,19.39
2019-01-28T20:56:46.492Z,19.39
2019-01-28T20:57:46.637Z,19.39
2019-01-28T20:58:46.567Z,19.38
2019-01-28T20:59:46.625Z,19.37
2019-01-28T21:00:46.666Z,19.38
2019-01-28T21:01:46.669Z,19.35
2019-01-28T21:02:48.376Z,19.36
2019-01-28T21:03:48.080Z,19.36
2019-01-28T21:04:46.923Z,19.35
2019-01-28T21:05:47.424Z,19.33
2019-01-28T21:06:46.756Z,19.34
2019-01-28T21:07:47.576Z,19.33
2019-01-28T21:08:46.996Z,19.33
2019-01-28T21:09:46.861Z,19.32
2019-01-28T21:10:47.134Z,19.3
2019-01-28T21:11:46.757Z,19.3
2019-01-28T21:12:47.072Z,19.3
2019-01-28T21:13:46.661Z,19.29
2019-01-28T21:14:46.586Z,19.29
2019-01-28T21:15:46.709Z,19.29
2019-01-28T21:16:47.250Z,19.29
2019-01-28T21:17:46.653Z,19.28
2019-01-28T21:18:46.831Z,19.27
2019-01-28T21:19:47.146Z,19.26
2019-01-28T21:20:46.505Z,19.25
2019-01-28T21:21:46.663Z,19.25
2019-01-28T21:22:46.604Z,19.25
2019-01-28T21:23:46.468Z,19.24
2019-01-28T21:24:46.667Z,19.24
2019-01-28T21:25:46.644Z,19.24
2019-01-28T21:26:47.721Z,19.22
2019-01-28T21:27:46.525Z,19.23
2019-01-28T21:28:46.667Z,19.23
2019-01-28T21:29:46.775Z,19.22
2019-01-28T21:30:46.828Z,19.22
2019-01-28T21:31:46.640Z,19.2
2019-01-28T21:32:46.912Z,19.21
2019-01-28T21:33:46.859Z,19.18
2019-01-28T21:34:46.768Z,19.18
2019-01-28T21:35:46.833Z,19.18
2019-01-28T21:36:46.875Z,19.16
2019-01-28T21:37:46.759Z,19.14
2019-01-28T21:38:46.578Z,19.13
2019-01-28T21:39:46.774Z,19.13
2019-01-28T21:40:46.713Z,19.11
2019-01-28T21:41:47.817Z,19.11
2019-01-28T21:42:46.645Z,19.08
2019-01-28T21:43:46.927Z,19.07
2019-01-28T21:44:48.412Z,19.08
2019-01-28T21:45:46.696Z,19.06
2019-01-28T21:46:46.662Z,19.05
2019-01-28T21:47:46.581Z,19.05
2019-01-28T21:48:46.591Z,19.03
2019-01-28T21:49:48.184Z,19.02
2019-01-28T21:50:46.602Z,19.02
2019-01-28T21:51:50.527Z,19
2019-01-28T21:52:46.715Z,19
2019-01-28T21:53:46.694Z,18.98
2019-01-28T21:54:46.669Z,18.97
2019-01-28T21:55:46.715Z,18.97
2019-01-28T21:56:47.960Z,18.95
2019-01-28T21:57:48.153Z,18.94
2019-01-28T21:58:46.824Z,18.93
2019-01-28T21:59:46.584Z,18.92
2019-01-28T22:00:46.745Z,18.91
2019-01-28T22:01:46.520Z,18.9
2019-01-28T22:02:47.212Z,18.89
2019-01-28T22:03:46.717Z,18.89
2019-01-28T22:04:46.997Z,18.88
2019-01-28T22:05:46.989Z,18.86
2019-01-28T22:06:46.901Z,18.86
2019-01-28T22:07:46.495Z,18.84
2019-01-28T22:08:46.744Z,18.84
2019-01-28T22:09:46.436Z,18.83
2019-01-28T22:10:46.901Z,18.82
2019-01-28T22:11:46.909Z,18.81
2019-01-28T22:12:46.622Z,18.81
2019-01-28T22:13:46.681Z,18.79
2019-01-28T22:14:46.828Z,18.78
2019-01-28T22:15:46.900Z,18.77
2019-01-28T22:16:47.176Z,18.77
2019-01-28T22:17:47.387Z,18.76
2019-01-28T22:18:46.746Z,18.75
2019-01-28T22:19:46.558Z,18.75
2019-01-28T22:20:46.371Z,18.71
2019-01-28T22:21:47.092Z,18.72
2019-01-28T22:22:46.592Z,18.7
2019-01-28T22:23:46.416Z,18.7
2019-01-28T22:24:46.500Z,18.68
2019-01-28T22:25:46.555Z,18.68
2019-01-28T22:26:46.413Z,18.67
2019-01-28T22:27:46.643Z,18.67
2019-01-28T22:28:46.701Z,18.65
2019-01-28T22:29:47.044Z,18.65
2019-01-28T22:30:46.579Z,18.64
2019-01-28T22:31:46.575Z,18.63
2019-01-28T22:32:46.379Z,18.62
2019-01-28T22:33:46.990Z,18.62
2019-01-28T22:34:47.776Z,18.61
2019-01-28T22:35:46.587Z,18.59
2019-01-28T22:36:47.105Z,18.59
2019-01-28T22:37:46.603Z,18.59
2019-01-28T22:38:47.221Z,18.57
2019-01-28T22:39:46.679Z,18.57
2019-01-28T22:40:46.674Z,18.56
2019-01-28T22:41:46.585Z,18.56
2019-01-28T22:42:46.601Z,18.55
2019-01-28T22:43:46.840Z,18.53
2019-01-28T22:44:46.636Z,18.52
2019-01-28T22:45:46.992Z,18.52
2019-01-28T22:46:47.253Z,18.52
2019-01-28T22:47:46.693Z,18.49
2019-01-28T22:48:46.663Z,18.5
2019-01-28T22:49:46.802Z,18.5
2019-01-28T22:50:46.804Z,18.49
2019-01-28T22:51:47.093Z,18.46
2019-01-28T22:52:46.840Z,18.45
2019-01-28T22:53:47.244Z,18.45
2019-01-28T22:54:47.138Z,18.44
2019-01-28T22:55:46.767Z,18.44
2019-01-28T22:56:46.334Z,18.44
2019-01-28T22:57:46.688Z,18.43
2019-01-28T22:58:46.679Z,18.42
2019-01-28T22:59:46.545Z,18.41
2019-01-28T23:00:46.640Z,18.41
2019-01-28T23:01:46.782Z,18.4
2019-01-28T23:02:46.666Z,18.4
2019-01-28T23:03:46.508Z,18.38
2019-01-28T23:04:46.544Z,18.37
2019-01-28T23:05:46.887Z,18.37
2019-01-28T23:06:46.819Z,18.36
2019-01-28T23:07:46.880Z,18.36
2019-01-28T23:08:46.721Z,18.35
2019-01-28T23:09:46.736Z,18.35
2019-01-28T23:10:46.601Z,18.33
2019-01-28T23:11:46.480Z,18.33
2019-01-28T23:12:46.966Z,18.33
2019-01-28T23:13:46.619Z,18.32
2019-01-28T23:14:46.760Z,18.31
2019-01-28T23:15:46.972Z,18.3
2019-01-28T23:16:46.789Z,18.29
2019-01-28T23:17:46.814Z,18.3
2019-01-28T23:18:46.526Z,18.29
2019-01-28T23:19:46.451Z,18.28
2019-01-28T23:20:46.537Z,18.28
2019-01-28T23:21:46.863Z,18.27
2019-01-28T23:22:46.455Z,18.26
2019-01-28T23:23:46.950Z,18.24
2019-01-28T23:24:46.725Z,18.24
2019-01-28T23:25:46.771Z,18.23
2019-01-28T23:26:46.691Z,18.23
2019-01-28T23:27:47.084Z,18.21
2019-01-28T23:28:46.523Z,18.21
2019-01-28T23:29:46.520Z,18.21
2019-01-28T23:30:46.720Z,18.21
2019-01-28T23:31:46.602Z,18.21
2019-01-28T23:32:46.609Z,18.19
2019-01-28T23:33:46.561Z,18.2
2019-01-28T23:34:46.426Z,18.17
2019-01-28T23:35:46.554Z,18.18
2019-01-28T23:36:47.336Z,18.17
2019-01-28T23:37:46.831Z,18.17
2019-01-28T23:38:47.049Z,18.16
2019-01-28T23:39:47.474Z,18.16
2019-01-28T23:40:46.570Z,18.14
2019-01-28T23:41:46.296Z,18.13
2019-01-28T23:42:46.681Z,18.13
2019-01-28T23:43:46.450Z,18.12
2019-01-28T23:44:46.361Z,18.11
2019-01-28T23:45:46.800Z,18.09
2019-01-28T23:46:46.705Z,18.1
2019-01-28T23:47:46.567Z,18.09
2019-01-28T23:48:46.687Z,18.08
2019-01-28T23:49:46.547Z,18.08
2019-01-28T23:50:46.660Z,18.06
2019-01-28T23:51:46.734Z,18.06
2019-01-28T23:52:47.692Z,18.04
2019-01-28T23:53:47.179Z,18.03
2019-01-28T23:54:46.561Z,18.03
2019-01-28T23:55:47.380Z,18.04
2019-01-28T23:56:46.756Z,18.02
2019-01-28T23:57:46.601Z,18.03
2019-01-28T23:58:46.993Z,18.01
2019-01-28T23:59:46.806Z,18.02
